createdAt,value
2019-03-27T00:00:20.050Z,7.90
2019-03-27T00:02:53.248Z,7.90
2019-03-27T00:05:26.437Z,7.90
2019-03-27T00:07:59.645Z,7.90
2019-03-27T00:10:32.852Z,7.90
2019-03-27T00:13:06.028Z,7.90
2019-03-27T00:15:39.221Z,7.90
2019-03-27T00:18:12.395Z,7.90
2019-03-27T00:20:45.586Z,7.80
2019-03-27T00:23:18.783Z,7.80
2019-03-27T00:25:51.984Z,7.80
2019-03-27T00:28:25.193Z,7.80
2019-03-27T00:30:58.476Z,7.80
2019-03-27T00:33:31.651Z,7.80
2019-03-27T00:36:04.857Z,7.80
2019-03-27T00:38:38.030Z,7.70
2019-03-27T00:41:11.246Z,7.80
2019-03-27T00:43:44.418Z,7.80
2019-03-27T00:46:17.627Z,7.80
2019-03-27T00:48:50.801Z,7.70
2019-03-27T00:51:23.973Z,7.80
2019-03-27T00:53:57.147Z,7.80
2019-03-27T00:56:30.341Z,7.80
2019-03-27T00:59:03.507Z,7.80
2019-03-27T01:01:36.689Z,7.80
2019-03-27T01:04:09.864Z,7.80
2019-03-27T01:06:43.035Z,7.80
2019-03-27T01:09:16.253Z,7.80
2019-03-27T01:11:49.440Z,7.80
2019-03-27T01:14:22.614Z,7.80
2019-03-27T01:16:55.835Z,7.80
2019-03-27T01:19:29.092Z,7.70
2019-03-27T01:22:02.267Z,7.70
2019-03-27T01:24:35.432Z,7.70
2019-03-27T01:27:08.645Z,7.70
2019-03-27T01:29:41.896Z,7.70
2019-03-27T01:32:15.154Z,7.70
2019-03-27T01:34:48.318Z,7.60
2019-03-27T01:37:21.599Z,7.70
2019-03-27T01:39:54.818Z,7.70
2019-03-27T01:42:28.027Z,7.70
2019-03-27T01:45:01.199Z,7.70
2019-03-27T01:47:34.379Z,7.70
2019-03-27T01:50:07.628Z,7.70
2019-03-27T01:52:40.811Z,7.70
2019-03-27T01:55:14.013Z,7.70
2019-03-27T01:57:47.197Z,7.70
2019-03-27T02:00:20.359Z,7.70
2019-03-27T02:02:53.575Z,7.70
2019-03-27T02:05:26.755Z,7.60
2019-03-27T02:07:59.957Z,7.70
2019-03-27T02:10:33.152Z,7.70
2019-03-27T02:13:06.433Z,7.70
2019-03-27T02:15:39.643Z,7.60
2019-03-27T02:18:12.835Z,7.60
2019-03-27T02:20:46.004Z,7.60
2019-03-27T02:23:19.188Z,7.60
2019-03-27T02:25:52.363Z,7.60
2019-03-27T02:28:25.598Z,7.60
2019-03-27T02:30:58.779Z,7.50
2019-03-27T02:33:31.972Z,7.50
2019-03-27T02:36:05.367Z,7.50
2019-03-27T02:38:38.570Z,7.50
2019-03-27T02:41:11.756Z,7.50
2019-03-27T02:43:44.939Z,7.50
2019-03-27T02:46:25.051Z,7.40
2019-03-27T02:48:53.413Z,7.40
2019-03-27T02:58:35.865Z,7.30
2019-03-27T03:01:09.043Z,7.20
2019-03-27T03:03:42.214Z,7.20
2019-03-27T03:06:15.381Z,7.20
2019-03-27T03:12:02.846Z,7.10
2019-03-27T03:14:36.014Z,7.10
2019-03-27T03:17:09.191Z,7.00
2019-03-27T03:19:42.357Z,7.00
2019-03-27T03:22:15.513Z,7.00
2019-03-27T03:24:48.741Z,6.90
2019-03-27T03:27:22.017Z,6.90
2019-03-27T03:29:55.234Z,6.90
2019-03-27T03:32:28.409Z,6.90
2019-03-27T03:35:01.839Z,6.80
2019-03-27T03:37:35.082Z,6.80
2019-03-27T03:40:09.327Z,6.70
2019-03-27T03:42:42.545Z,6.70
2019-03-27T03:45:15.843Z,6.70
2019-03-27T03:47:49.063Z,6.60
2019-03-27T03:50:37.601Z,6.60
2019-03-27T03:53:12.391Z,6.60
2019-03-27T03:55:45.625Z,6.60
2019-03-27T03:58:18.839Z,6.60
2019-03-27T04:00:52.000Z,6.60
2019-03-27T04:03:25.158Z,6.60
2019-03-27T04:05:58.346Z,6.60
2019-03-27T04:08:31.500Z,6.60
2019-03-27T04:11:04.706Z,6.60
2019-03-27T04:13:37.950Z,6.60
2019-03-27T04:16:11.124Z,6.60
2019-03-27T04:18:44.295Z,6.60
2019-03-27T04:21:17.465Z,6.70
2019-03-27T04:23:50.622Z,6.70
2019-03-27T04:26:23.872Z,6.70
2019-03-27T04:28:57.027Z,6.80
2019-03-27T04:31:30.191Z,6.80
2019-03-27T04:34:03.445Z,6.80
2019-03-27T04:36:36.631Z,6.80
2019-03-27T04:39:09.802Z,6.80
2019-03-27T04:41:43.008Z,6.80
2019-03-27T04:44:16.183Z,6.80
2019-03-27T04:46:49.674Z,6.80
2019-03-27T04:49:22.850Z,6.80
2019-03-27T04:51:56.027Z,6.80
2019-03-27T04:54:29.254Z,6.80
2019-03-27T04:57:02.426Z,6.70
2019-03-27T04:59:35.586Z,6.70
2019-03-27T05:02:08.761Z,6.70
2019-03-27T05:04:41.922Z,6.70
2019-03-27T05:07:15.118Z,6.70
2019-03-27T05:09:48.318Z,6.70
2019-03-27T05:12:21.490Z,6.80
2019-03-27T05:14:54.670Z,6.80
2019-03-27T05:17:27.844Z,6.80
2019-03-27T05:20:01.003Z,6.80
2019-03-27T05:22:34.177Z,6.80
2019-03-27T05:25:07.421Z,6.80
2019-03-27T05:27:40.593Z,6.80
2019-03-27T05:30:17.050Z,6.80
2019-03-27T05:32:50.217Z,6.80
2019-03-27T05:35:23.384Z,6.80
2019-03-27T05:37:56.661Z,6.80
2019-03-27T05:40:29.826Z,6.90
2019-03-27T05:43:03.039Z,6.90
2019-03-27T05:45:36.203Z,6.90
2019-03-27T05:48:09.388Z,6.90
2019-03-27T05:50:42.574Z,6.90
2019-03-27T05:53:16.014Z,6.90
2019-03-27T05:55:49.174Z,6.90
2019-03-27T05:58:22.539Z,6.90
2019-03-27T06:00:55.722Z,6.90
2019-03-27T06:03:28.891Z,6.90
2019-03-27T06:06:02.176Z,6.90
2019-03-27T06:08:35.353Z,6.90
2019-03-27T06:11:08.526Z,7.00
2019-03-27T06:13:41.690Z,7.00
2019-03-27T06:16:14.897Z,7.00
2019-03-27T06:18:48.099Z,7.00
2019-03-27T06:21:21.254Z,7.00
2019-03-27T06:27:09.199Z,7.00
2019-03-27T06:29:42.465Z,7.10
2019-03-27T06:32:15.694Z,7.10
2019-03-27T06:34:48.898Z,7.10
2019-03-27T06:37:22.063Z,7.10
2019-03-27T06:39:55.252Z,7.10
2019-03-27T06:42:28.457Z,7.10
2019-03-27T06:45:01.742Z,7.30
2019-03-27T06:47:34.947Z,7.40
2019-03-27T06:50:08.127Z,7.50
2019-03-27T06:52:41.318Z,7.50
2019-03-27T06:55:14.525Z,7.40
2019-03-27T06:57:47.717Z,7.40
2019-03-27T07:00:32.254Z,7.40
2019-03-27T07:03:06.096Z,7.40
2019-03-27T07:05:39.291Z,7.40
2019-03-27T07:08:12.525Z,7.30
2019-03-27T07:10:45.724Z,7.30
2019-03-27T07:13:18.904Z,7.30
2019-03-27T07:15:52.119Z,7.30
2019-03-27T07:18:25.381Z,7.30
2019-03-27T07:20:58.565Z,7.30
2019-03-27T07:23:31.746Z,7.30
2019-03-27T07:26:04.985Z,7.40
2019-03-27T07:28:38.162Z,7.30
2019-03-27T07:31:11.370Z,7.40
2019-03-27T07:33:44.546Z,7.50
2019-03-27T07:36:17.753Z,7.50
2019-03-27T07:38:50.940Z,7.50
2019-03-27T07:41:24.133Z,7.60
2019-03-27T07:43:57.431Z,7.60
2019-03-27T07:46:30.622Z,7.70
2019-03-27T07:49:03.810Z,7.80
2019-03-27T07:51:37.009Z,7.90
2019-03-27T07:54:10.373Z,8.00
2019-03-27T07:56:44.212Z,8.00
2019-03-27T07:59:17.804Z,8.00
2019-03-27T08:01:50.986Z,8.00
2019-03-27T08:04:24.622Z,8.00
2019-03-27T08:06:57.836Z,8.00
2019-03-27T08:09:31.030Z,8.20
2019-03-27T08:12:04.231Z,8.40
2019-03-27T08:14:37.423Z,8.50
2019-03-27T08:17:12.140Z,8.50
2019-03-27T08:19:45.318Z,8.50
2019-03-27T08:22:18.503Z,8.40
2019-03-27T08:24:51.674Z,8.30
2019-03-27T08:27:24.853Z,8.30
2019-03-27T08:29:58.041Z,8.50
2019-03-27T08:32:31.267Z,8.60
2019-03-27T08:35:05.126Z,8.60
2019-03-27T08:40:11.175Z,9.00
2019-03-27T08:42:44.368Z,9.20
2019-03-27T08:45:17.911Z,9.40
2019-03-27T08:47:53.423Z,9.40
2019-03-27T08:50:26.573Z,9.80
2019-03-27T08:55:32.544Z,10.40
2019-03-27T08:58:05.721Z,10.50
2019-03-27T09:00:48.256Z,10.60
2019-03-27T09:03:21.902Z,10.50
2019-03-27T09:05:55.088Z,10.30
2019-03-27T09:08:28.273Z,10.20
2019-03-27T09:11:04.486Z,10.10
2019-03-27T09:13:36.375Z,10.00
2019-03-27T09:16:09.551Z,9.90
2019-03-27T09:18:42.738Z,9.80
2019-03-27T09:21:15.934Z,9.60
2019-03-27T09:23:49.124Z,9.70
2019-03-27T09:26:22.286Z,9.80
2019-03-27T09:28:55.465Z,9.90
2019-03-27T09:31:28.671Z,10.00
2019-03-27T09:34:01.859Z,10.30
2019-03-27T09:36:35.025Z,10.50
2019-03-27T09:39:09.439Z,10.70
2019-03-27T09:41:42.615Z,10.80
2019-03-27T09:44:15.794Z,10.90
2019-03-27T09:46:49.018Z,10.70
2019-03-27T09:49:22.207Z,10.70
2019-03-27T09:51:55.377Z,10.70
2019-03-27T09:54:28.622Z,10.70
2019-03-27T09:57:01.798Z,10.80
2019-03-27T09:59:34.981Z,11.00
2019-03-27T10:02:08.160Z,11.00
2019-03-27T10:04:41.345Z,11.20
2019-03-27T10:07:14.521Z,11.10
2019-03-27T10:09:50.325Z,11.50
2019-03-27T10:12:22.710Z,11.80
2019-03-27T10:14:55.912Z,12.00
2019-03-27T10:17:29.142Z,12.30
2019-03-27T10:20:03.776Z,12.30
2019-03-27T10:22:37.400Z,12.30
2019-03-27T10:25:10.617Z,12.30
2019-03-27T10:27:43.790Z,12.40
2019-03-27T10:30:17.010Z,12.40
2019-03-27T10:32:50.196Z,12.40
2019-03-27T10:35:23.385Z,12.20
2019-03-27T10:37:56.594Z,11.90
2019-03-27T10:40:29.786Z,11.80
2019-03-27T10:43:02.974Z,11.60
2019-03-27T10:45:36.173Z,11.70
2019-03-27T10:48:09.374Z,11.50
2019-03-27T10:50:42.554Z,11.40
2019-03-27T10:53:15.951Z,11.30
2019-03-27T10:55:49.139Z,11.40
2019-03-27T10:58:22.306Z,11.50
2019-03-27T11:00:55.495Z,11.50
2019-03-27T11:03:28.667Z,11.70
2019-03-27T11:06:01.850Z,11.70
2019-03-27T11:08:35.019Z,11.80
2019-03-27T11:11:08.226Z,11.70
2019-03-27T11:13:43.125Z,11.80
2019-03-27T11:16:16.326Z,12.00
2019-03-27T11:18:49.494Z,12.10
2019-03-27T11:21:22.677Z,12.30
2019-03-27T11:23:55.860Z,12.30
2019-03-27T11:26:29.046Z,12.40
2019-03-27T11:29:02.223Z,12.10
2019-03-27T11:31:35.414Z,11.70
2019-03-27T11:34:09.389Z,11.70
2019-03-27T11:36:42.672Z,11.90
2019-03-27T11:39:15.860Z,12.00
2019-03-27T11:41:49.035Z,12.20
2019-03-27T11:44:22.221Z,12.50
2019-03-27T11:46:55.402Z,12.70
2019-03-27T11:49:28.592Z,12.80
2019-03-27T11:52:01.784Z,13.00
2019-03-27T11:54:35.078Z,13.20
2019-03-27T11:57:08.263Z,13.20
2019-03-27T11:59:53.424Z,13.20
2019-03-27T12:02:16.418Z,13.30
2019-03-27T12:04:49.590Z,13.20
2019-03-27T12:07:22.782Z,13.30
2019-03-27T12:09:55.952Z,13.20
2019-03-27T12:12:29.227Z,12.90
2019-03-27T12:15:02.627Z,12.50
2019-03-27T12:17:35.782Z,12.30
2019-03-27T12:20:09.039Z,11.80
2019-03-27T12:22:42.266Z,11.70
2019-03-27T12:25:15.438Z,11.30
2019-03-27T12:27:48.631Z,11.60
2019-03-27T12:30:21.816Z,11.60
2019-03-27T12:32:55.084Z,11.70
2019-03-27T12:35:28.250Z,11.80
2019-03-27T12:38:04.249Z,11.90
2019-03-27T12:40:36.840Z,12.40
2019-03-27T12:43:10.039Z,12.10
2019-03-27T12:45:43.395Z,12.10
2019-03-27T12:48:16.633Z,12.00
2019-03-27T12:50:49.802Z,12.40
2019-03-27T12:53:22.983Z,12.50
2019-03-27T12:55:56.153Z,12.80
2019-03-27T12:58:29.346Z,13.00
2019-03-27T13:01:02.540Z,13.10
2019-03-27T13:03:35.804Z,13.10
2019-03-27T13:06:08.995Z,13.20
2019-03-27T13:08:42.183Z,12.70
2019-03-27T13:11:15.398Z,12.60
2019-03-27T13:13:49.187Z,12.00
2019-03-27T13:16:24.183Z,12.00
2019-03-27T13:18:58.235Z,11.80
2019-03-27T13:21:31.405Z,11.70
2019-03-27T13:24:04.658Z,11.70
2019-03-27T13:26:37.854Z,11.90
2019-03-27T13:29:11.049Z,12.20
2019-03-27T13:31:44.250Z,12.50
2019-03-27T13:34:17.435Z,12.60
2019-03-27T13:36:50.678Z,12.50
2019-03-27T13:39:23.977Z,12.40
2019-03-27T13:41:57.194Z,12.40
2019-03-27T13:44:36.890Z,12.50
2019-03-27T13:47:05.374Z,12.50
2019-03-27T13:49:38.691Z,12.20
2019-03-27T13:52:11.886Z,12.10
2019-03-27T13:54:45.095Z,12.00
2019-03-27T13:57:18.273Z,12.00
2019-03-27T13:59:51.492Z,12.00
2019-03-27T14:02:24.672Z,11.90
2019-03-27T14:04:57.906Z,11.70
2019-03-27T14:07:31.215Z,11.60
2019-03-27T14:10:05.088Z,11.70
2019-03-27T14:12:38.257Z,11.70
2019-03-27T14:15:11.445Z,11.80
2019-03-27T14:17:44.627Z,12.10
2019-03-27T14:20:17.870Z,12.30
2019-03-27T14:22:51.050Z,12.30
2019-03-27T14:25:24.234Z,12.30
2019-03-27T14:27:57.423Z,12.10
2019-03-27T14:30:48.931Z,11.90
2019-03-27T14:33:22.108Z,11.80
2019-03-27T14:35:55.300Z,11.60
2019-03-27T14:38:28.560Z,11.70
2019-03-27T14:41:01.811Z,11.60
2019-03-27T14:43:34.981Z,11.70
2019-03-27T14:46:08.255Z,11.80
2019-03-27T14:48:41.454Z,12.00
2019-03-27T14:51:14.678Z,11.90
2019-03-27T14:53:47.855Z,12.00
2019-03-27T14:56:21.086Z,12.10
2019-03-27T14:58:54.265Z,12.20
2019-03-27T15:01:27.493Z,12.20
2019-03-27T15:04:00.719Z,12.10
2019-03-27T15:06:33.911Z,12.10
2019-03-27T15:09:07.631Z,12.00
2019-03-27T15:11:40.824Z,11.90
2019-03-27T15:14:14.025Z,11.90
2019-03-27T15:16:47.223Z,11.90
2019-03-27T15:19:20.754Z,11.70
2019-03-27T15:21:54.018Z,11.50
2019-03-27T15:24:27.218Z,11.60
2019-03-27T15:27:00.409Z,11.60
2019-03-27T15:29:33.577Z,11.60
2019-03-27T15:32:06.786Z,11.70
2019-03-27T15:34:40.041Z,11.80
2019-03-27T15:37:13.234Z,11.80
2019-03-27T15:39:46.495Z,11.90
2019-03-27T15:42:19.682Z,12.00
2019-03-27T15:44:52.896Z,12.10
2019-03-27T15:47:26.137Z,12.10
2019-03-27T15:49:59.405Z,12.10
2019-03-27T15:52:36.702Z,12.10
2019-03-27T15:55:08.866Z,12.20
2019-03-27T15:57:42.050Z,12.30
2019-03-27T16:00:15.337Z,12.30
2019-03-27T16:02:48.527Z,12.00
2019-03-27T16:05:22.409Z,11.80
2019-03-27T16:07:55.639Z,11.80
2019-03-27T16:10:28.814Z,11.70
2019-03-27T16:13:03.896Z,11.70
2019-03-27T16:15:37.965Z,11.80
2019-03-27T16:18:11.198Z,11.70
2019-03-27T16:20:44.365Z,11.60
2019-03-27T16:23:17.553Z,11.60
2019-03-27T16:25:50.792Z,11.60
2019-03-27T16:28:23.986Z,11.70
2019-03-27T16:30:57.210Z,11.70
2019-03-27T16:33:30.398Z,11.80
2019-03-27T16:36:03.686Z,11.70
2019-03-27T16:38:36.879Z,11.70
2019-03-27T16:41:10.057Z,11.70
2019-03-27T16:43:44.375Z,11.80
2019-03-27T16:46:17.719Z,11.80
2019-03-27T16:48:50.911Z,11.90
2019-03-27T16:51:24.185Z,11.90
2019-03-27T16:53:57.363Z,11.80
2019-03-27T16:56:30.634Z,11.80
2019-03-27T16:59:03.863Z,11.80
2019-03-27T17:01:37.081Z,11.80
2019-03-27T17:04:10.257Z,11.70
2019-03-27T17:06:43.466Z,11.70
2019-03-27T17:09:16.655Z,11.60
2019-03-27T17:11:49.873Z,11.60
2019-03-27T17:14:23.078Z,11.50
2019-03-27T17:16:56.267Z,11.50
2019-03-27T17:19:29.464Z,11.50
2019-03-27T17:22:02.674Z,11.40
2019-03-27T17:24:35.871Z,11.40
2019-03-27T17:27:09.052Z,11.40
2019-03-27T17:29:42.254Z,11.30
2019-03-27T17:32:15.528Z,11.20
2019-03-27T17:34:51.813Z,11.20
2019-03-27T17:37:23.627Z,11.20
2019-03-27T17:39:56.917Z,11.10
2019-03-27T17:42:30.090Z,11.10
2019-03-27T17:45:03.406Z,11.00
2019-03-27T17:47:36.582Z,11.00
2019-03-27T17:50:09.770Z,11.00
2019-03-27T17:52:43.011Z,10.90
2019-03-27T17:55:16.204Z,10.80
2019-03-27T17:57:49.368Z,10.80
2019-03-27T18:00:42.570Z,10.80
2019-03-27T18:03:15.764Z,10.70
2019-03-27T18:05:49.014Z,10.70
2019-03-27T18:08:22.200Z,10.70
2019-03-27T18:10:55.390Z,10.60
2019-03-27T18:13:28.564Z,10.50
2019-03-27T18:16:01.805Z,10.50
2019-03-27T18:18:35.038Z,10.40
2019-03-27T18:21:08.248Z,10.40
2019-03-27T18:23:46.279Z,10.30
2019-03-27T18:26:16.433Z,10.30
2019-03-27T18:28:49.617Z,10.20
2019-03-27T18:31:22.820Z,10.20
2019-03-27T18:33:55.989Z,10.10
2019-03-27T18:36:29.257Z,10.10
2019-03-27T18:39:02.438Z,10.00
2019-03-27T18:41:35.627Z,10.00
2019-03-27T18:44:08.924Z,10.00
2019-03-27T18:46:42.130Z,10.00
2019-03-27T18:49:15.327Z,9.90
2019-03-27T18:51:48.510Z,9.90
2019-03-27T18:54:23.557Z,9.90
2019-03-27T18:56:56.578Z,9.90
2019-03-27T18:59:31.373Z,9.90
2019-03-27T19:02:04.845Z,9.90
2019-03-27T19:04:37.990Z,9.80
2019-03-27T19:07:11.182Z,9.80
2019-03-27T19:09:44.357Z,9.80
2019-03-27T19:12:17.586Z,9.70
2019-03-27T19:14:50.769Z,9.70
2019-03-27T19:17:24.691Z,9.70
2019-03-27T19:19:57.931Z,9.70
2019-03-27T19:22:31.126Z,9.60
2019-03-27T19:25:04.870Z,9.60
2019-03-27T19:27:38.046Z,9.60
2019-03-27T19:30:11.223Z,9.60
2019-03-27T19:32:44.860Z,9.50
2019-03-27T19:35:18.113Z,9.50
2019-03-27T19:37:51.287Z,9.50
2019-03-27T19:40:25.389Z,9.50
2019-03-27T19:42:58.590Z,9.40
2019-03-27T19:45:31.841Z,9.40
2019-03-27T19:48:05.128Z,9.40
2019-03-27T19:50:38.352Z,9.40
2019-03-27T19:53:11.546Z,9.40
2019-03-27T19:55:44.728Z,9.40
2019-03-27T19:58:17.905Z,9.30
2019-03-27T20:00:51.071Z,9.30
2019-03-27T20:03:24.254Z,9.30
2019-03-27T20:05:57.440Z,9.30
2019-03-27T20:08:30.619Z,9.30
2019-03-27T20:11:03.809Z,9.30
2019-03-27T20:13:37.515Z,9.30
2019-03-27T20:16:10.688Z,9.30
2019-03-27T20:18:43.891Z,9.30
2019-03-27T20:21:17.079Z,9.30
2019-03-27T20:23:50.258Z,9.30
2019-03-27T20:26:23.471Z,9.30
2019-03-27T20:28:56.711Z,9.20
2019-03-27T20:31:30.266Z,9.20
2019-03-27T20:34:03.454Z,9.20
2019-03-27T20:36:36.654Z,9.10
2019-03-27T20:39:09.845Z,9.10
2019-03-27T20:41:43.021Z,9.10
2019-03-27T20:44:16.222Z,9.00
2019-03-27T20:46:49.512Z,9.00
2019-03-27T20:49:22.685Z,9.00
2019-03-27T20:51:57.059Z,8.90
2019-03-27T20:54:30.247Z,8.90
2019-03-27T20:57:03.452Z,8.90
2019-03-27T20:59:36.670Z,8.90
2019-03-27T21:02:09.858Z,8.80
2019-03-27T21:04:43.038Z,8.80
2019-03-27T21:07:16.213Z,8.80
2019-03-27T21:09:49.443Z,8.70
2019-03-27T21:12:22.736Z,8.70
2019-03-27T21:14:55.915Z,8.70
2019-03-27T21:17:29.102Z,8.70
2019-03-27T21:20:02.318Z,8.70
2019-03-27T21:22:35.506Z,8.70
2019-03-27T21:25:09.776Z,8.70
2019-03-27T21:27:43.236Z,8.70
2019-03-27T21:30:16.424Z,8.70
2019-03-27T21:32:49.595Z,8.70
2019-03-27T21:35:22.785Z,8.70
2019-03-27T21:37:55.958Z,8.70
2019-03-27T21:40:29.148Z,8.70
2019-03-27T21:43:02.329Z,8.60
2019-03-27T21:45:35.507Z,8.60
2019-03-27T21:48:08.689Z,8.60
2019-03-27T21:50:41.949Z,8.60
2019-03-27T21:53:15.156Z,8.60
2019-03-27T21:55:48.338Z,8.60
2019-03-27T21:58:21.535Z,8.60
2019-03-27T22:00:54.767Z,8.60
2019-03-27T22:03:27.973Z,8.60
2019-03-27T22:06:01.163Z,8.60
2019-03-27T22:08:34.379Z,8.60
2019-03-27T22:11:07.621Z,8.60
2019-03-27T22:13:40.817Z,8.60
2019-03-27T22:16:14.001Z,8.60
2019-03-27T22:18:47.169Z,8.60
2019-03-27T22:21:20.354Z,8.60
2019-03-27T22:23:53.561Z,8.60
2019-03-27T22:26:26.754Z,8.60
2019-03-27T22:28:59.947Z,8.60
2019-03-27T22:31:33.131Z,8.60
2019-03-27T22:34:06.306Z,8.60
2019-03-27T22:36:39.486Z,8.60
2019-03-27T22:39:12.657Z,8.50
2019-03-27T22:41:45.843Z,8.50
2019-03-27T22:44:19.115Z,8.60
2019-03-27T22:46:52.293Z,8.60
2019-03-27T22:49:25.472Z,8.50
2019-03-27T22:51:58.653Z,8.50
2019-03-27T22:54:31.850Z,8.50
2019-03-27T22:57:05.044Z,8.50
2019-03-27T22:59:38.222Z,8.50
2019-03-27T23:02:11.429Z,8.50
2019-03-27T23:04:44.611Z,8.50
2019-03-27T23:07:17.802Z,8.50
2019-03-27T23:09:50.970Z,8.50
2019-03-27T23:12:24.158Z,8.50
2019-03-27T23:14:57.329Z,8.50
2019-03-27T23:17:30.502Z,8.50
2019-03-27T23:20:04.868Z,8.50
2019-03-27T23:22:38.053Z,8.50
2019-03-27T23:25:11.234Z,8.50
2019-03-27T23:27:44.410Z,8.50
2019-03-27T23:30:17.561Z,8.50
2019-03-27T23:32:50.738Z,8.50
2019-03-27T23:35:23.902Z,8.50
2019-03-27T23:37:57.101Z,8.50
2019-03-27T23:40:30.278Z,8.50
2019-03-27T23:43:03.482Z,8.50
2019-03-27T23:45:36.654Z,8.50
2019-03-27T23:48:09.841Z,8.50
2019-03-27T23:50:43.036Z,8.50
2019-03-27T23:53:16.314Z,8.50
2019-03-27T23:55:49.502Z,8.50
2019-03-27T23:58:22.720Z,8.50
